createdAt,value
2019-04-26T00:01:26.987Z,1.60
2019-04-26T00:03:57.550Z,4.57
2019-04-26T00:06:28.288Z,1.50
2019-04-26T00:09:15.812Z,3.57
2019-04-26T00:12:07.941Z,6.00
2019-04-26T00:14:56.218Z,2.50
2019-04-26T00:17:44.109Z,15.03
2019-04-26T00:20:15.034Z,6.83
2019-04-26T00:22:45.607Z,4.03
2019-04-26T00:25:16.524Z,2.67
2019-04-26T00:27:47.056Z,3.97
2019-04-26T00:30:17.620Z,1.33
2019-04-26T00:32:48.072Z,1.70
2019-04-26T00:35:18.571Z,2.37
2019-04-26T00:37:49.034Z,2.10
2019-04-26T00:40:20.356Z,2.20
2019-04-26T00:42:52.256Z,1.70
2019-04-26T00:45:23.921Z,2.07
2019-04-26T00:47:56.111Z,2.87
2019-04-26T00:50:26.585Z,4.73
2019-04-26T00:52:57.747Z,5.23
2019-04-26T00:55:30.227Z,2.80
2019-04-26T00:58:01.599Z,2.00
2019-04-26T01:00:32.138Z,1.70
2019-04-26T01:03:02.715Z,2.37
2019-04-26T01:05:34.896Z,1.77
2019-04-26T01:08:05.427Z,3.17
2019-04-26T01:10:36.173Z,1.77
2019-04-26T01:13:06.646Z,1.93
2019-04-26T01:15:37.539Z,17.17
2019-04-26T01:18:08.109Z,1.37
2019-04-26T01:20:40.842Z,1.27
2019-04-26T01:23:17.379Z,4.62
2019-04-26T01:26:11.998Z,1.72
2019-04-26T01:28:55.165Z,3.60
2019-04-26T01:31:29.253Z,2.80
2019-04-26T01:33:59.786Z,4.72
2019-04-26T01:36:34.206Z,1.50
2019-04-26T01:39:17.535Z,1.67
2019-04-26T01:41:57.220Z,3.52
2019-04-26T01:44:47.977Z,3.25
2019-04-26T01:47:20.047Z,2.92
2019-04-26T01:49:51.584Z,3.05
2019-04-26T01:52:22.845Z,1.87
2019-04-26T01:54:54.292Z,2.55
2019-04-26T01:57:29.892Z,1.60
2019-04-26T02:00:10.746Z,3.02
2019-04-26T02:02:53.916Z,3.83
2019-04-26T02:05:26.296Z,1.57
2019-04-26T02:07:57.119Z,1.85
2019-04-26T02:10:28.696Z,3.80
2019-04-26T02:13:00.074Z,2.10
2019-04-26T02:15:33.885Z,2.80
2019-04-26T02:18:05.261Z,1.97
2019-04-26T02:21:04.239Z,3.47
2019-04-26T02:23:44.637Z,1.70
2019-04-26T02:26:34.638Z,2.17
2019-04-26T02:29:12.899Z,1.80
2019-04-26T02:31:48.028Z,2.05
2019-04-26T02:34:18.481Z,2.00
2019-04-26T02:36:58.056Z,2.02
2019-04-26T02:39:29.358Z,3.70
2019-04-26T02:42:06.309Z,2.72
2019-04-26T02:44:58.092Z,5.17
2019-04-26T02:48:02.229Z,2.60
2019-04-26T02:50:41.879Z,1.83
2019-04-26T02:53:25.255Z,2.70
2019-04-26T02:56:37.676Z,3.67
2019-04-26T02:59:38.162Z,1.90
2019-04-26T03:02:32.290Z,1.90
2019-04-26T03:05:07.775Z,2.90
2019-04-26T03:08:11.658Z,2.10
2019-04-26T03:10:51.805Z,2.30
2019-04-26T03:13:48.955Z,2.50
2019-04-26T03:16:43.068Z,5.00
2019-04-26T03:19:49.424Z,1.85
2019-04-26T03:22:57.510Z,5.50
2019-04-26T03:26:22.355Z,2.33
2019-04-26T03:29:37.632Z,3.90
2019-04-26T03:32:56.825Z,2.58
2019-04-26T03:35:58.257Z,2.52
2019-04-26T03:38:45.276Z,3.58
2019-04-26T03:41:44.313Z,2.60
2019-04-26T03:44:42.827Z,3.37
2019-04-26T03:47:20.526Z,2.62
2019-04-26T03:50:21.508Z,3.87
2019-04-26T03:53:12.945Z,4.20
2019-04-26T03:56:58.473Z,3.40
2019-04-26T03:59:46.716Z,4.25
2019-04-26T04:02:45.721Z,8.25
2019-04-26T04:05:37.262Z,3.70
2019-04-26T04:08:11.313Z,4.58
2019-04-26T04:10:49.632Z,3.85
2019-04-26T04:13:44.193Z,6.17
2019-04-26T04:17:20.850Z,9.90
2019-04-26T04:20:30.038Z,8.80
2019-04-26T04:24:00.962Z,7.95
2019-04-26T04:27:41.949Z,11.33
2019-04-26T04:30:49.412Z,11.05
2019-04-26T04:34:10.181Z,9.60
2019-04-26T04:36:51.899Z,12.37
2019-04-26T04:39:40.830Z,11.70
2019-04-26T04:42:43.410Z,16.65
2019-04-26T04:45:53.040Z,17.40
2019-04-26T04:48:58.362Z,16.45
2019-04-26T04:52:32.434Z,16.67
2019-04-26T04:55:16.578Z,16.62
2019-04-26T04:58:11.325Z,16.77
2019-04-26T05:01:50.858Z,19.45
2019-04-26T05:04:43.753Z,31.77
2019-04-26T05:07:29.940Z,17.50
2019-04-26T05:10:26.192Z,20.32
2019-04-26T05:13:38.050Z,20.65
2019-04-26T05:16:33.742Z,23.87
2019-04-26T05:19:54.910Z,22.02
2019-04-26T05:22:58.660Z,23.15
2019-04-26T05:27:01.071Z,25.27
2019-04-26T05:30:56.132Z,24.02
2019-04-26T05:34:11.226Z,21.90
2019-04-26T05:37:26.744Z,23.47
2019-04-26T05:40:17.319Z,26.20
2019-04-26T05:43:53.920Z,24.00
2019-04-26T05:47:22.762Z,23.25
2019-04-26T05:51:26.146Z,21.70
2019-04-26T05:54:47.750Z,23.10
2019-04-26T05:57:59.066Z,29.57
2019-04-26T06:01:16.831Z,25.20
2019-04-26T06:04:25.369Z,38.88
2019-04-26T06:07:44.348Z,34.78
2019-04-26T06:10:33.243Z,28.17
2019-04-26T06:14:02.349Z,29.20
2019-04-26T06:17:22.041Z,28.42
2019-04-26T06:20:27.072Z,32.73
2019-04-26T06:23:47.400Z,24.95
2019-04-26T06:27:14.536Z,30.40
2019-04-26T06:30:17.104Z,32.65
2019-04-26T06:33:33.145Z,32.50
2019-04-26T06:36:13.554Z,33.40
2019-04-26T06:39:26.599Z,31.40
2019-04-26T06:42:32.683Z,24.77
2019-04-26T06:45:40.571Z,33.23
2019-04-26T06:48:34.848Z,32.95
2019-04-26T06:51:24.748Z,28.50
2019-04-26T06:54:16.178Z,34.08
2019-04-26T06:57:59.992Z,31.20
2019-04-26T07:00:58.989Z,32.25
2019-04-26T07:04:00.628Z,26.27
2019-04-26T07:06:39.733Z,26.60
2019-04-26T07:09:13.083Z,26.97
2019-04-26T07:12:32.532Z,24.77
2019-04-26T07:15:57.005Z,26.43
2019-04-26T07:19:06.173Z,23.63
2019-04-26T07:22:35.189Z,22.70
2019-04-26T07:26:11.331Z,23.60
2019-04-26T07:29:31.543Z,25.85
2019-04-26T07:32:24.514Z,20.27
2019-04-26T07:35:23.829Z,10.53
2019-04-26T07:39:20.721Z,5.83
2019-04-26T07:42:53.478Z,14.65
2019-04-26T07:46:19.323Z,8.80
2019-04-26T07:49:44.783Z,8.57
2019-04-26T07:52:49.096Z,7.10
2019-04-26T07:55:52.433Z,7.37
2019-04-26T07:59:44.228Z,6.35
2019-04-26T08:02:43.605Z,6.83
2019-04-26T08:05:32.739Z,4.80
2019-04-26T08:08:08.967Z,8.90
2019-04-26T08:10:43.625Z,11.00
2019-04-26T08:13:18.833Z,9.93
2019-04-26T08:16:30.525Z,9.08
2019-04-26T08:19:09.029Z,7.30
2019-04-26T08:21:47.997Z,7.75
2019-04-26T08:24:27.904Z,6.30
2019-04-26T08:27:23.993Z,3.62
2019-04-26T08:30:10.117Z,8.60
2019-04-26T08:32:47.366Z,3.55
2019-04-26T08:35:29.060Z,7.80
2019-04-26T08:38:16.041Z,5.75
2019-04-26T08:40:45.239Z,6.78
2019-04-26T08:43:37.247Z,3.95
2019-04-26T08:46:20.714Z,12.53
2019-04-26T08:49:11.207Z,6.20
2019-04-26T08:51:45.734Z,6.22
2019-04-26T08:54:24.894Z,5.47
2019-04-26T08:57:09.713Z,8.23
2019-04-26T08:59:46.636Z,10.28
2019-04-26T09:02:40.435Z,12.67
2019-04-26T09:05:28.148Z,7.25
2019-04-26T09:08:03.965Z,6.20
2019-04-26T09:10:43.295Z,7.35
2019-04-26T09:13:17.157Z,7.17
2019-04-26T09:16:19.474Z,8.85
2019-04-26T09:18:54.161Z,7.10
2019-04-26T09:21:33.702Z,11.68
2019-04-26T09:24:25.112Z,11.27
2019-04-26T09:27:00.472Z,6.05
2019-04-26T09:30:04.993Z,8.05
2019-04-26T09:32:42.012Z,6.80
2019-04-26T09:35:15.304Z,8.78
2019-04-26T09:37:45.947Z,8.28
2019-04-26T09:40:21.523Z,7.12
2019-04-26T09:43:15.068Z,8.15
2019-04-26T09:46:15.560Z,9.40
2019-04-26T09:48:56.158Z,6.85
2019-04-26T09:51:26.954Z,7.35
2019-04-26T09:53:57.679Z,6.30
2019-04-26T09:56:29.176Z,3.50
2019-04-26T09:59:05.202Z,7.10
2019-04-26T10:01:34.641Z,5.00
2019-04-26T10:04:05.118Z,9.88
2019-04-26T10:06:35.871Z,4.97
2019-04-26T10:09:12.855Z,6.35
2019-04-26T10:11:48.279Z,9.25
2019-04-26T10:14:26.344Z,11.40
2019-04-26T10:17:25.319Z,7.95
2019-04-26T10:19:57.584Z,6.58
2019-04-26T10:22:31.067Z,8.60
2019-04-26T10:25:08.083Z,6.80
2019-04-26T10:27:40.283Z,8.60
2019-04-26T10:30:10.826Z,5.22
2019-04-26T10:32:41.369Z,7.67
2019-04-26T10:35:13.434Z,8.80
2019-04-26T10:37:47.965Z,5.35
2019-04-26T10:40:17.689Z,6.80
2019-04-26T10:42:48.913Z,5.87
2019-04-26T10:45:19.887Z,9.28
2019-04-26T10:47:51.337Z,6.95
2019-04-26T10:50:22.259Z,5.90
2019-04-26T10:53:02.672Z,6.85
2019-04-26T10:56:01.522Z,5.87
2019-04-26T10:58:49.631Z,3.75
2019-04-26T11:01:22.249Z,6.10
2019-04-26T11:03:52.661Z,6.37
2019-04-26T11:06:27.882Z,5.03
2019-04-26T11:08:57.059Z,6.20
2019-04-26T11:11:27.894Z,9.10
2019-04-26T11:13:59.244Z,5.40
2019-04-26T11:16:29.734Z,5.15
2019-04-26T11:19:01.206Z,10.35
2019-04-26T11:21:34.211Z,11.90
2019-04-26T11:24:04.719Z,7.60
2019-04-26T11:26:36.292Z,9.75
2019-04-26T11:29:06.967Z,9.88
2019-04-26T11:31:37.554Z,7.45
2019-04-26T11:34:08.342Z,6.65
2019-04-26T11:36:41.798Z,8.73
2019-04-26T11:39:13.544Z,4.67
2019-04-26T11:41:44.922Z,6.22
2019-04-26T11:44:15.477Z,9.03
2019-04-26T11:46:46.350Z,7.57
2019-04-26T11:49:16.820Z,7.35
2019-04-26T11:51:50.204Z,5.10
2019-04-26T11:54:22.223Z,5.50
2019-04-26T11:56:54.518Z,5.35
2019-04-26T11:59:27.120Z,6.08
2019-04-26T12:01:57.440Z,5.08
2019-04-26T12:04:49.595Z,4.90
2019-04-26T12:07:24.289Z,6.00
2019-04-26T12:09:56.265Z,10.50
2019-04-26T12:12:27.687Z,7.60
2019-04-26T12:14:58.250Z,6.72
2019-04-26T12:17:31.141Z,5.97
2019-04-26T12:20:01.163Z,5.35
2019-04-26T12:22:31.668Z,5.35
2019-04-26T12:25:03.322Z,9.30
2019-04-26T12:27:34.544Z,6.10
2019-04-26T12:30:05.407Z,7.12
2019-04-26T12:32:36.124Z,5.85
2019-04-26T12:35:06.683Z,6.30
2019-04-26T12:37:37.275Z,6.90
2019-04-26T12:40:11.357Z,6.20
2019-04-26T12:42:43.477Z,5.30
2019-04-26T12:45:38.533Z,7.12
2019-04-26T12:48:12.308Z,7.58
2019-04-26T12:50:43.339Z,4.40
2019-04-26T12:53:13.951Z,4.83
2019-04-26T12:55:44.572Z,5.55
2019-04-26T12:58:15.441Z,5.60
2019-04-26T13:00:53.745Z,4.40
2019-04-26T13:03:20.576Z,3.58
2019-04-26T13:05:57.717Z,4.35
2019-04-26T13:08:23.587Z,7.97
2019-04-26T13:11:28.314Z,3.30
2019-04-26T13:14:03.049Z,3.65
2019-04-26T13:16:49.461Z,3.70
2019-04-26T13:19:21.053Z,5.70
2019-04-26T13:21:51.684Z,5.47
2019-04-26T13:24:22.234Z,5.45
2019-04-26T13:26:52.969Z,8.68
2019-04-26T13:29:23.537Z,9.40
2019-04-26T13:31:54.057Z,5.00
2019-04-26T13:34:24.623Z,4.70
2019-04-26T13:36:55.169Z,4.95
2019-04-26T13:39:25.707Z,5.33
2019-04-26T13:42:02.948Z,6.72
2019-04-26T13:44:46.389Z,4.50
2019-04-26T13:47:35.896Z,3.85
2019-04-26T13:50:29.253Z,5.00
2019-04-26T13:52:59.825Z,5.10
2019-04-26T13:55:30.531Z,4.85
2019-04-26T13:58:01.160Z,8.60
2019-04-26T14:00:33.016Z,9.93
2019-04-26T14:03:03.569Z,9.15
2019-04-26T14:05:34.123Z,10.57
2019-04-26T14:08:04.833Z,9.78
2019-04-26T14:10:35.726Z,9.38
2019-04-26T14:13:06.294Z,8.90
2019-04-26T14:15:39.496Z,9.15
2019-04-26T14:18:09.411Z,12.05
2019-04-26T14:20:39.933Z,10.38
2019-04-26T14:23:35.259Z,10.30
2019-04-26T14:26:08.837Z,13.90
2019-04-26T14:28:41.880Z,11.23
2019-04-26T14:31:12.372Z,13.47
2019-04-26T14:33:44.069Z,9.73
2019-04-26T14:36:18.050Z,11.10
2019-04-26T14:38:46.934Z,12.90
2019-04-26T14:41:21.807Z,13.65
2019-04-26T14:43:52.596Z,15.97
2019-04-26T14:46:23.016Z,15.27
2019-04-26T14:49:01.430Z,16.02
2019-04-26T14:51:26.114Z,14.40
2019-04-26T14:53:56.661Z,9.53
2019-04-26T14:56:29.436Z,13.85
2019-04-26T14:59:01.702Z,8.75
2019-04-26T15:01:45.201Z,11.40
2019-04-26T15:04:33.377Z,14.23
2019-04-26T15:07:05.726Z,14.40
2019-04-26T15:09:36.698Z,13.10
2019-04-26T15:12:07.609Z,8.10
2019-04-26T15:14:39.749Z,7.70
2019-04-26T15:17:12.280Z,10.20
2019-04-26T15:19:45.862Z,10.45
2019-04-26T15:22:15.065Z,8.58
2019-04-26T15:24:45.621Z,7.67
2019-04-26T15:27:16.201Z,6.60
2019-04-26T15:29:46.743Z,7.75
2019-04-26T15:32:17.480Z,8.63
2019-04-26T15:34:48.052Z,8.63
2019-04-26T15:37:20.309Z,4.78
2019-04-26T15:40:09.900Z,8.65
2019-04-26T15:42:58.882Z,11.08
2019-04-26T15:45:35.918Z,8.00
2019-04-26T15:48:39.037Z,5.67
2019-04-26T15:51:09.632Z,4.20
2019-04-26T15:53:43.450Z,4.67
2019-04-26T15:56:16.271Z,8.70
2019-04-26T15:58:48.957Z,6.10
2019-04-26T16:01:16.926Z,6.13
2019-04-26T16:03:50.231Z,5.33
2019-04-26T16:06:20.861Z,6.70
2019-04-26T16:08:52.154Z,4.58
2019-04-26T16:11:22.781Z,8.40
2019-04-26T16:13:55.453Z,3.75
2019-04-26T16:16:29.197Z,2.90
2019-04-26T16:18:57.891Z,6.78
2019-04-26T16:21:28.701Z,3.22
2019-04-26T16:23:59.314Z,2.43
2019-04-26T16:26:29.896Z,4.63
2019-04-26T16:29:19.779Z,4.03
2019-04-26T16:32:08.245Z,3.43
2019-04-26T16:34:41.468Z,2.47
2019-04-26T16:37:16.574Z,2.77
2019-04-26T16:39:48.385Z,2.85
2019-04-26T16:42:16.496Z,4.30
2019-04-26T16:44:47.059Z,2.27
2019-04-26T16:47:17.688Z,3.25
2019-04-26T16:49:48.196Z,1.90
2019-04-26T16:52:18.791Z,1.80
2019-04-26T16:54:49.431Z,3.50
2019-04-26T16:57:20.157Z,3.15
2019-04-26T16:59:57.032Z,1.90
2019-04-26T17:04:55.302Z,2.50
2019-04-26T17:07:27.380Z,2.20
2019-04-26T17:09:51.041Z,3.90
2019-04-26T17:09:59.616Z,2.85
2019-04-26T17:12:30.542Z,3.25
2019-04-26T17:15:01.040Z,3.00
2019-04-26T17:17:33.110Z,3.30
2019-04-26T17:20:06.696Z,4.37
2019-04-26T17:23:00.783Z,5.25
2019-04-26T17:25:45.421Z,4.20
2019-04-26T17:28:18.083Z,5.15
2019-04-26T17:30:48.369Z,5.22
2019-04-26T17:33:23.555Z,10.80
2019-04-26T17:35:51.229Z,5.62
2019-04-26T17:38:22.488Z,5.65
2019-04-26T17:40:53.127Z,9.18
2019-04-26T17:43:23.718Z,11.97
2019-04-26T17:45:54.214Z,13.25
2019-04-26T17:48:24.774Z,15.05
2019-04-26T17:50:55.367Z,15.67
2019-04-26T17:53:31.168Z,19.10
2019-04-26T17:55:58.538Z,17.92
2019-04-26T17:58:33.724Z,19.20
2019-04-26T18:01:03.915Z,22.48
2019-04-26T18:03:34.485Z,23.95
2019-04-26T18:06:05.128Z,23.87
2019-04-26T18:08:55.265Z,23.67
2019-04-26T18:11:26.085Z,21.02
2019-04-26T18:13:56.616Z,21.20
2019-04-26T18:16:29.488Z,24.80
2019-04-26T18:19:31.360Z,23.35
2019-04-26T18:22:23.146Z,22.60
2019-04-26T18:24:53.810Z,21.15
2019-04-26T18:27:24.346Z,24.77
2019-04-26T18:29:54.961Z,26.75
2019-04-26T18:32:25.554Z,24.95
2019-04-26T18:34:56.132Z,26.12
2019-04-26T18:37:26.758Z,24.98
2019-04-26T18:40:00.943Z,30.10
2019-04-26T18:42:29.602Z,33.38
2019-04-26T18:45:00.215Z,28.85
2019-04-26T18:47:35.764Z,33.63
2019-04-26T18:50:07.435Z,40.20
2019-04-26T18:52:42.273Z,37.70
2019-04-26T18:55:29.020Z,41.50
2019-04-26T18:58:01.464Z,43.53
2019-04-26T19:00:34.247Z,39.95
2019-04-26T19:03:05.272Z,43.65
2019-04-26T19:05:36.028Z,39.50
2019-04-26T19:08:07.557Z,38.80
2019-04-26T19:10:38.941Z,46.15
2019-04-26T19:13:24.491Z,42.75
2019-04-26T19:16:03.675Z,42.33
2019-04-26T19:18:58.863Z,39.10
2019-04-26T19:21:41.672Z,45.38
2019-04-26T19:24:19.782Z,43.65
2019-04-26T19:26:49.675Z,45.67
2019-04-26T19:29:18.675Z,46.58
2019-04-26T19:31:49.166Z,47.98
2019-04-26T19:34:19.754Z,48.78
2019-04-26T19:36:50.416Z,49.03
2019-04-26T19:39:30.425Z,52.83
2019-04-26T19:41:57.626Z,50.87
2019-04-26T19:44:25.643Z,53.52
2019-04-26T19:47:27.306Z,57.20
2019-04-26T19:50:09.791Z,53.93
2019-04-26T19:52:58.994Z,56.03
2019-04-26T19:55:55.003Z,52.20
2019-04-26T19:58:28.135Z,59.93
2019-04-26T20:00:59.513Z,63.85
2019-04-26T20:03:30.060Z,65.22
2019-04-26T20:06:00.646Z,62.93
2019-04-26T20:08:35.478Z,64.25
2019-04-26T20:11:03.518Z,59.23
2019-04-26T20:13:34.083Z,63.40
2019-04-26T20:16:05.985Z,65.42
2019-04-26T20:18:38.947Z,58.68
2019-04-26T20:21:12.607Z,66.12
2019-04-26T20:23:43.795Z,64.62
2019-04-26T20:26:14.011Z,64.80
2019-04-26T20:28:44.539Z,66.55
2019-04-26T20:31:31.385Z,61.45
2019-04-26T20:34:05.524Z,62.83
2019-04-26T20:36:40.770Z,68.28
2019-04-26T20:39:08.492Z,63.78
2019-04-26T20:41:39.082Z,70.47
2019-04-26T20:44:10.246Z,66.28
2019-04-26T20:46:42.621Z,67.47
2019-04-26T20:49:13.333Z,62.23
2019-04-26T20:51:46.355Z,63.40
2019-04-26T20:54:17.391Z,66.20
2019-04-26T20:56:52.623Z,62.47
2019-04-26T20:59:21.984Z,66.60
2019-04-26T21:02:03.317Z,65.83
2019-04-26T21:04:36.854Z,66.65
2019-04-26T21:06:57.294Z,69.30
2019-04-26T21:09:27.929Z,75.57
2019-04-26T21:11:58.568Z,77.03
2019-04-26T21:14:29.110Z,75.32
2019-04-26T21:16:59.624Z,74.23
2019-04-26T21:19:32.736Z,73.62
2019-04-26T21:22:02.691Z,77.35
2019-04-26T21:24:36.897Z,77.30
2019-04-26T21:27:35.567Z,73.12
2019-04-26T21:30:29.434Z,76.37
2019-04-26T21:33:35.821Z,78.02
2019-04-26T21:36:16.043Z,70.47
2019-04-26T21:39:11.521Z,71.82
2019-04-26T21:41:46.754Z,67.20
2019-04-26T21:44:15.859Z,68.90
2019-04-26T21:46:49.713Z,68.80
2019-04-26T21:49:20.751Z,70.47
2019-04-26T21:51:52.639Z,76.00
2019-04-26T21:54:24.874Z,75.30
2019-04-26T21:56:55.787Z,74.85
2019-04-26T21:59:26.292Z,68.97
2019-04-26T22:01:59.169Z,74.32
2019-04-26T22:04:34.107Z,80.32
2019-04-26T22:07:06.347Z,74.25
2019-04-26T22:09:52.785Z,77.05
2019-04-26T22:12:27.332Z,76.10
2019-04-26T22:15:29.631Z,70.92
2019-04-26T22:18:03.279Z,76.10
2019-04-26T22:20:38.409Z,77.62
2019-04-26T22:23:33.940Z,76.37
2019-04-26T22:26:08.378Z,78.87
2019-04-26T22:28:37.631Z,76.20
2019-04-26T22:31:08.754Z,81.90
2019-04-26T22:33:39.576Z,87.60
2019-04-26T22:36:10.152Z,82.05
2019-04-26T22:38:40.740Z,78.10
2019-04-26T22:41:11.269Z,76.28
2019-04-26T22:44:05.442Z,79.77
2019-04-26T22:46:58.863Z,76.87
2019-04-26T22:49:27.171Z,82.60
2019-04-26T22:51:57.698Z,75.10
2019-04-26T22:54:28.220Z,81.78
2019-04-26T22:56:58.769Z,73.33
2019-04-26T22:59:29.325Z,77.37
2019-04-26T23:01:59.877Z,74.25
2019-04-26T23:04:30.687Z,77.30
2019-04-26T23:07:03.423Z,82.30
2019-04-26T23:09:33.701Z,78.50
2019-04-26T23:12:28.130Z,80.97
2019-04-26T23:15:15.965Z,74.00
2019-04-26T23:18:11.595Z,75.72
2019-04-26T23:20:48.813Z,72.82
2019-04-26T23:23:19.363Z,71.80
2019-04-26T23:25:49.849Z,74.07
2019-04-26T23:28:20.402Z,74.95
2019-04-26T23:30:50.971Z,73.62
2019-04-26T23:33:21.557Z,67.78
2019-04-26T23:35:53.004Z,66.45
2019-04-26T23:38:23.862Z,66.45
2019-04-26T23:40:57.235Z,66.57
2019-04-26T23:43:26.733Z,65.17
2019-04-26T23:45:57.288Z,66.67
2019-04-26T23:48:27.785Z,67.25
2019-04-26T23:50:59.850Z,62.83
2019-04-26T23:53:30.577Z,70.12
2019-04-26T23:56:01.112Z,67.47
2019-04-26T23:58:31.656Z,71.50
